sensor_id;sensor_type;location;lat;lon;timestamp;P1;durP1;ratioP1;P2;durP2;ratioP2
36189;SDS011;22232;50.914;13.858;2022-11-11T00:01:36;8.23;;;2.10;;
36189;SDS011;22232;50.914;13.858;2022-11-11T00:04:22;8.20;;;1.90;;
36189;SDS011;22232;50.914;13.858;2022-11-11T00:07:08;7.03;;;1.80;;
36189;SDS011;22232;50.914;13.858;2022-11-11T00:09:54;8.43;;;1.60;;
36189;SDS011;22232;50.914;13.858;2022-11-11T00:12:40;3.20;;;1.77;;
36189;SDS011;22232;50.914;13.858;2022-11-11T00:15:27;7.35;;;2.05;;
36189;SDS011;22232;50.914;13.858;2022-11-11T00:18:13;10.02;;;1.83;;
36189;SDS011;22232;50.914;13.858;2022-11-11T00:21:18;6.97;;;1.85;;
36189;SDS011;22232;50.914;13.858;2022-11-11T00:24:26;9.05;;;2.10;;
36189;SDS011;22232;50.914;13.858;2022-11-11T00:27:33;4.10;;;1.33;;
36189;SDS011;22232;50.914;13.858;2022-11-11T00:30:20;6.28;;;1.85;;
36189;SDS011;22232;50.914;13.858;2022-11-11T00:33:06;6.25;;;1.40;;
36189;SDS011;22232;50.914;13.858;2022-11-11T00:35:53;4.10;;;1.70;;
36189;SDS011;22232;50.914;13.858;2022-11-11T00:38:42;7.40;;;1.90;;
36189;SDS011;22232;50.914;13.858;2022-11-11T00:41:31;7.20;;;1.80;;
36189;SDS011;22232;50.914;13.858;2022-11-11T00:44:17;4.25;;;1.73;;
36189;SDS011;22232;50.914;13.858;2022-11-11T00:47:03;4.63;;;1.92;;
36189;SDS011;22232;50.914;13.858;2022-11-11T00:50:26;4.93;;;1.83;;
36189;SDS011;22232;50.914;13.858;2022-11-11T00:53:32;5.57;;;1.67;;
36189;SDS011;22232;50.914;13.858;2022-11-11T00:56:20;6.38;;;2.00;;
36189;SDS011;22232;50.914;13.858;2022-11-11T00:59:07;9.32;;;2.03;;
36189;SDS011;22232;50.914;13.858;2022-11-11T01:01:54;7.60;;;1.58;;
36189;SDS011;22232;50.914;13.858;2022-11-11T01:04:40;4.70;;;2.10;;
36189;SDS011;22232;50.914;13.858;2022-11-11T01:07:26;7.07;;;1.80;;
36189;SDS011;22232;50.914;13.858;2022-11-11T01:10:12;4.72;;;1.80;;
36189;SDS011;22232;50.914;13.858;2022-11-11T01:13:20;5.32;;;1.83;;
36189;SDS011;22232;50.914;13.858;2022-11-11T01:16:07;5.55;;;1.42;;
36189;SDS011;22232;50.914;13.858;2022-11-11T01:18:57;10.52;;;1.70;;
36189;SDS011;22232;50.914;13.858;2022-11-11T01:21:43;7.85;;;2.05;;
36189;SDS011;22232;50.914;13.858;2022-11-11T01:24:29;7.88;;;2.13;;
36189;SDS011;22232;50.914;13.858;2022-11-11T01:27:15;6.95;;;1.80;;
36189;SDS011;22232;50.914;13.858;2022-11-11T01:30:01;9.13;;;1.67;;
36189;SDS011;22232;50.914;13.858;2022-11-11T01:32:48;7.55;;;1.60;;
36189;SDS011;22232;50.914;13.858;2022-11-11T01:35:36;7.40;;;1.38;;
36189;SDS011;22232;50.914;13.858;2022-11-11T01:38:24;7.78;;;1.60;;
36189;SDS011;22232;50.914;13.858;2022-11-11T01:41:12;5.65;;;1.40;;
36189;SDS011;22232;50.914;13.858;2022-11-11T01:44:39;5.40;;;1.58;;
36189;SDS011;22232;50.914;13.858;2022-11-11T01:47:32;5.35;;;1.52;;
36189;SDS011;22232;50.914;13.858;2022-11-11T01:51:01;5.05;;;1.70;;
36189;SDS011;22232;50.914;13.858;2022-11-11T01:53:52;5.15;;;1.08;;
36189;SDS011;22232;50.914;13.858;2022-11-11T01:56:43;6.40;;;1.58;;
36189;SDS011;22232;50.914;13.858;2022-11-11T01:59:34;7.53;;;1.38;;
36189;SDS011;22232;50.914;13.858;2022-11-11T02:05:29;9.40;;;1.65;;
36189;SDS011;22232;50.914;13.858;2022-11-11T02:08:32;6.65;;;1.73;;
36189;SDS011;22232;50.914;13.858;2022-11-11T02:11:21;6.57;;;1.98;;
36189;SDS011;22232;50.914;13.858;2022-11-11T02:14:29;8.10;;;1.60;;
36189;SDS011;22232;50.914;13.858;2022-11-11T02:17:22;6.45;;;1.38;;
36189;SDS011;22232;50.914;13.858;2022-11-11T02:20:09;7.72;;;2.15;;
36189;SDS011;22232;50.914;13.858;2022-11-11T02:25:54;4.05;;;1.25;;
36189;SDS011;22232;50.914;13.858;2022-11-11T02:28:42;4.78;;;1.40;;
36189;SDS011;22232;50.914;13.858;2022-11-11T02:31:30;4.03;;;1.65;;
36189;SDS011;22232;50.914;13.858;2022-11-11T02:34:17;7.30;;;1.40;;
36189;SDS011;22232;50.914;13.858;2022-11-11T02:37:04;4.18;;;1.65;;
36189;SDS011;22232;50.914;13.858;2022-11-11T02:39:53;5.80;;;1.55;;
36189;SDS011;22232;50.914;13.858;2022-11-11T02:42:49;8.40;;;1.60;;
36189;SDS011;22232;50.914;13.858;2022-11-11T02:45:35;10.20;;;2.05;;
36189;SDS011;22232;50.914;13.858;2022-11-11T02:48:22;7.10;;;1.50;;
36189;SDS011;22232;50.914;13.858;2022-11-11T02:51:09;8.00;;;1.65;;
36189;SDS011;22232;50.914;13.858;2022-11-11T02:53:55;7.35;;;1.83;;
36189;SDS011;22232;50.914;13.858;2022-11-11T02:56:43;6.43;;;1.42;;
36189;SDS011;22232;50.914;13.858;2022-11-11T02:59:48;7.10;;;2.20;;
36189;SDS011;22232;50.914;13.858;2022-11-11T03:02:34;2.35;;;1.30;;
36189;SDS011;22232;50.914;13.858;2022-11-11T03:05:20;7.35;;;1.67;;
36189;SDS011;22232;50.914;13.858;2022-11-11T03:08:07;6.13;;;1.60;;
36189;SDS011;22232;50.914;13.858;2022-11-11T03:10:53;4.35;;;1.63;;
36189;SDS011;22232;50.914;13.858;2022-11-11T03:13:39;6.13;;;1.25;;
36189;SDS011;22232;50.914;13.858;2022-11-11T03:16:25;4.18;;;1.45;;
36189;SDS011;22232;50.914;13.858;2022-11-11T03:19:31;4.65;;;1.83;;
36189;SDS011;22232;50.914;13.858;2022-11-11T03:22:18;5.38;;;1.35;;
36189;SDS011;22232;50.914;13.858;2022-11-11T03:25:24;5.15;;;1.30;;
36189;SDS011;22232;50.914;13.858;2022-11-11T03:28:22;6.28;;;1.40;;
36189;SDS011;22232;50.914;13.858;2022-11-11T03:31:10;5.95;;;1.40;;
36189;SDS011;22232;50.914;13.858;2022-11-11T03:33:56;5.05;;;1.30;;
36189;SDS011;22232;50.914;13.858;2022-11-11T03:37:03;5.88;;;1.08;;
36189;SDS011;22232;50.914;13.858;2022-11-11T03:40:10;8.07;;;1.13;;
36189;SDS011;22232;50.914;13.858;2022-11-11T03:42:56;3.95;;;1.33;;
36189;SDS011;22232;50.914;13.858;2022-11-11T03:45:49;3.67;;;1.10;;
36189;SDS011;22232;50.914;13.858;2022-11-11T03:48:39;6.18;;;1.23;;
36189;SDS011;22232;50.914;13.858;2022-11-11T03:51:25;7.63;;;1.60;;
36189;SDS011;22232;50.914;13.858;2022-11-11T03:54:11;6.07;;;1.13;;
36189;SDS011;22232;50.914;13.858;2022-11-11T03:56:57;3.78;;;1.23;;
36189;SDS011;22232;50.914;13.858;2022-11-11T04:00:03;4.43;;;1.00;;
36189;SDS011;22232;50.914;13.858;2022-11-11T04:03:06;5.22;;;1.27;;
36189;SDS011;22232;50.914;13.858;2022-11-11T04:06:15;6.63;;;1.58;;
36189;SDS011;22232;50.914;13.858;2022-11-11T04:09:20;3.50;;;1.10;;
36189;SDS011;22232;50.914;13.858;2022-11-11T04:15:11;4.85;;;1.23;;
36189;SDS011;22232;50.914;13.858;2022-11-11T04:21:02;2.72;;;1.00;;
36189;SDS011;22232;50.914;13.858;2022-11-11T04:24:23;2.75;;;1.23;;
36189;SDS011;22232;50.914;13.858;2022-11-11T04:27:28;2.28;;;0.90;;
36189;SDS011;22232;50.914;13.858;2022-11-11T04:30:14;2.63;;;1.33;;
36189;SDS011;22232;50.914;13.858;2022-11-11T04:33:00;3.17;;;1.40;;
36189;SDS011;22232;50.914;13.858;2022-11-11T04:35:49;10.20;;;1.42;;
36189;SDS011;22232;50.914;13.858;2022-11-11T04:38:36;6.40;;;1.20;;
36189;SDS011;22232;50.914;13.858;2022-11-11T04:41:41;5.20;;;1.50;;
36189;SDS011;22232;50.914;13.858;2022-11-11T04:44:46;2.97;;;1.08;;
36189;SDS011;22232;50.914;13.858;2022-11-11T04:47:52;2.92;;;0.95;;
36189;SDS011;22232;50.914;13.858;2022-11-11T04:50:46;3.22;;;0.77;;
36189;SDS011;22232;50.914;13.858;2022-11-11T04:53:31;2.92;;;1.00;;
36189;SDS011;22232;50.914;13.858;2022-11-11T04:56:18;8.20;;;1.40;;
36189;SDS011;22232;50.914;13.858;2022-11-11T04:59:22;6.05;;;1.10;;
36189;SDS011;22232;50.914;13.858;2022-11-11T05:02:08;4.63;;;1.00;;
36189;SDS011;22232;50.914;13.858;2022-11-11T05:05:13;4.57;;;1.02;;
36189;SDS011;22232;50.914;13.858;2022-11-11T05:07:59;7.45;;;1.25;;
36189;SDS011;22232;50.914;13.858;2022-11-11T05:13:50;3.33;;;0.90;;
36189;SDS011;22232;50.914;13.858;2022-11-11T05:16:57;2.33;;;0.80;;
36189;SDS011;22232;50.914;13.858;2022-11-11T05:20:02;3.85;;;1.05;;
36189;SDS011;22232;50.914;13.858;2022-11-11T05:23:07;2.50;;;1.20;;
36189;SDS011;22232;50.914;13.858;2022-11-11T05:25:53;6.22;;;2.22;;
36189;SDS011;22232;50.914;13.858;2022-11-11T05:28:39;9.57;;;4.78;;
36189;SDS011;22232;50.914;13.858;2022-11-11T05:31:25;27.50;;;14.20;;
36189;SDS011;22232;50.914;13.858;2022-11-11T05:34:12;18.90;;;9.18;;
36189;SDS011;22232;50.914;13.858;2022-11-11T05:36:58;9.82;;;5.72;;
36189;SDS011;22232;50.914;13.858;2022-11-11T05:39:44;10.35;;;4.57;;
36189;SDS011;22232;50.914;13.858;2022-11-11T05:42:30;3.53;;;2.25;;
36189;SDS011;22232;50.914;13.858;2022-11-11T05:45:16;5.50;;;1.60;;
36189;SDS011;22232;50.914;13.858;2022-11-11T05:48:02;4.97;;;0.80;;
36189;SDS011;22232;50.914;13.858;2022-11-11T05:50:48;3.58;;;0.80;;
36189;SDS011;22232;50.914;13.858;2022-11-11T05:53:34;5.03;;;1.08;;
36189;SDS011;22232;50.914;13.858;2022-11-11T05:56:20;0.95;;;0.80;;
36189;SDS011;22232;50.914;13.858;2022-11-11T05:59:06;4.75;;;1.85;;
36189;SDS011;22232;50.914;13.858;2022-11-11T06:01:53;10.50;;;1.50;;
36189;SDS011;22232;50.914;13.858;2022-11-11T06:04:38;3.55;;;0.93;;
36189;SDS011;22232;50.914;13.858;2022-11-11T06:07:25;3.30;;;1.27;;
36189;SDS011;22232;50.914;13.858;2022-11-11T06:10:10;3.22;;;0.85;;
36189;SDS011;22232;50.914;13.858;2022-11-11T06:13:15;2.08;;;0.80;;
36189;SDS011;22232;50.914;13.858;2022-11-11T06:16:01;1.70;;;0.77;;
36189;SDS011;22232;50.914;13.858;2022-11-11T06:18:49;4.22;;;2.00;;
36189;SDS011;22232;50.914;13.858;2022-11-11T06:21:35;3.95;;;1.13;;
36189;SDS011;22232;50.914;13.858;2022-11-11T06:24:41;1.83;;;0.75;;
36189;SDS011;22232;50.914;13.858;2022-11-11T06:27:27;2.78;;;1.00;;
36189;SDS011;22232;50.914;13.858;2022-11-11T06:30:13;2.78;;;0.85;;
36189;SDS011;22232;50.914;13.858;2022-11-11T06:33:19;3.40;;;1.13;;
36189;SDS011;22232;50.914;13.858;2022-11-11T06:36:07;1.55;;;0.80;;
36189;SDS011;22232;50.914;13.858;2022-11-11T06:38:55;2.00;;;1.08;;
36189;SDS011;22232;50.914;13.858;2022-11-11T06:41:41;5.95;;;0.80;;
36189;SDS011;22232;50.914;13.858;2022-11-11T06:44:27;4.97;;;1.10;;
36189;SDS011;22232;50.914;13.858;2022-11-11T06:47:13;2.60;;;0.82;;
36189;SDS011;22232;50.914;13.858;2022-11-11T06:50:00;3.75;;;0.70;;
36189;SDS011;22232;50.914;13.858;2022-11-11T06:52:47;2.28;;;0.80;;
36189;SDS011;22232;50.914;13.858;2022-11-11T06:55:33;2.15;;;0.80;;
36189;SDS011;22232;50.914;13.858;2022-11-11T06:58:19;3.33;;;1.10;;
36189;SDS011;22232;50.914;13.858;2022-11-11T07:01:07;4.60;;;1.30;;
36189;SDS011;22232;50.914;13.858;2022-11-11T07:03:54;5.50;;;1.35;;
36189;SDS011;22232;50.914;13.858;2022-11-11T07:06:40;5.43;;;2.47;;
36189;SDS011;22232;50.914;13.858;2022-11-11T07:09:26;7.22;;;2.92;;
36189;SDS011;22232;50.914;13.858;2022-11-11T07:12:13;6.53;;;3.75;;
36189;SDS011;22232;50.914;13.858;2022-11-11T07:14:59;12.77;;;7.22;;
36189;SDS011;22232;50.914;13.858;2022-11-11T07:17:46;8.73;;;4.78;;
36189;SDS011;22232;50.914;13.858;2022-11-11T07:20:32;8.80;;;4.50;;
36189;SDS011;22232;50.914;13.858;2022-11-11T07:23:18;8.80;;;3.97;;
36189;SDS011;22232;50.914;13.858;2022-11-11T07:26:04;7.28;;;2.30;;
36189;SDS011;22232;50.914;13.858;2022-11-11T07:28:50;8.48;;;3.88;;
36189;SDS011;22232;50.914;13.858;2022-11-11T07:31:36;9.40;;;4.43;;
36189;SDS011;22232;50.914;13.858;2022-11-11T07:34:22;5.88;;;2.33;;
36189;SDS011;22232;50.914;13.858;2022-11-11T07:37:08;4.25;;;1.95;;
36189;SDS011;22232;50.914;13.858;2022-11-11T07:39:54;2.15;;;1.00;;
36189;SDS011;22232;50.914;13.858;2022-11-11T07:42:41;1.80;;;0.88;;
36189;SDS011;22232;50.914;13.858;2022-11-11T07:45:28;3.30;;;0.70;;
36189;SDS011;22232;50.914;13.858;2022-11-11T07:48:14;1.63;;;0.52;;
36189;SDS011;22232;50.914;13.858;2022-11-11T07:51:00;1.58;;;0.75;;
36189;SDS011;22232;50.914;13.858;2022-11-11T07:53:46;2.00;;;0.70;;
36189;SDS011;22232;50.914;13.858;2022-11-11T07:56:32;1.60;;;0.70;;
36189;SDS011;22232;50.914;13.858;2022-11-11T07:59:18;2.28;;;0.70;;
36189;SDS011;22232;50.914;13.858;2022-11-11T08:02:04;3.65;;;0.85;;
36189;SDS011;22232;50.914;13.858;2022-11-11T08:04:50;3.78;;;0.82;;
36189;SDS011;22232;50.914;13.858;2022-11-11T08:07:40;2.63;;;0.85;;
36189;SDS011;22232;50.914;13.858;2022-11-11T08:10:27;2.55;;;0.80;;
36189;SDS011;22232;50.914;13.858;2022-11-11T08:13:13;4.15;;;1.13;;
36189;SDS011;22232;50.914;13.858;2022-11-11T08:16:17;3.10;;;1.13;;
36189;SDS011;22232;50.914;13.858;2022-11-11T08:19:03;4.85;;;1.30;;
36189;SDS011;22232;50.914;13.858;2022-11-11T08:21:50;7.57;;;1.38;;
36189;SDS011;22232;50.914;13.858;2022-11-11T08:24:37;8.57;;;1.83;;
36189;SDS011;22232;50.914;13.858;2022-11-11T08:27:44;12.82;;;2.17;;
36189;SDS011;22232;50.914;13.858;2022-11-11T08:30:31;4.28;;;1.30;;
36189;SDS011;22232;50.914;13.858;2022-11-11T08:33:17;4.95;;;1.30;;
36189;SDS011;22232;50.914;13.858;2022-11-11T08:36:17;5.80;;;0.80;;
36189;SDS011;22232;50.914;13.858;2022-11-11T08:39:05;4.68;;;0.95;;
36189;SDS011;22232;50.914;13.858;2022-11-11T08:41:52;5.88;;;1.25;;
36189;SDS011;22232;50.914;13.858;2022-11-11T08:44:38;4.38;;;0.98;;
36189;SDS011;22232;50.914;13.858;2022-11-11T08:47:24;5.53;;;1.65;;
36189;SDS011;22232;50.914;13.858;2022-11-11T08:50:10;2.65;;;0.95;;
36189;SDS011;22232;50.914;13.858;2022-11-11T08:52:56;2.88;;;1.10;;
36189;SDS011;22232;50.914;13.858;2022-11-11T08:55:43;3.90;;;1.52;;
36189;SDS011;22232;50.914;13.858;2022-11-11T08:58:29;4.25;;;1.15;;
36189;SDS011;22232;50.914;13.858;2022-11-11T09:01:16;2.95;;;1.05;;
36189;SDS011;22232;50.914;13.858;2022-11-11T09:04:02;3.28;;;1.90;;
36189;SDS011;22232;50.914;13.858;2022-11-11T09:07:09;2.33;;;1.65;;
36189;SDS011;22232;50.914;13.858;2022-11-11T09:09:56;3.40;;;1.25;;
36189;SDS011;22232;50.914;13.858;2022-11-11T09:12:42;2.88;;;1.75;;
36189;SDS011;22232;50.914;13.858;2022-11-11T09:15:28;2.05;;;1.15;;
36189;SDS011;22232;50.914;13.858;2022-11-11T09:18:15;2.17;;;0.90;;
36189;SDS011;22232;50.914;13.858;2022-11-11T09:21:01;3.03;;;1.33;;
36189;SDS011;22232;50.914;13.858;2022-11-11T09:23:48;3.40;;;1.40;;
36189;SDS011;22232;50.914;13.858;2022-11-11T09:26:34;4.57;;;1.33;;
36189;SDS011;22232;50.914;13.858;2022-11-11T09:29:20;2.60;;;1.40;;
36189;SDS011;22232;50.914;13.858;2022-11-11T09:32:07;4.05;;;2.10;;
36189;SDS011;22232;50.914;13.858;2022-11-11T09:34:52;2.67;;;0.95;;
36189;SDS011;22232;50.914;13.858;2022-11-11T09:37:41;2.72;;;0.80;;
36189;SDS011;22232;50.914;13.858;2022-11-11T09:46:34;2.25;;;0.60;;
36189;SDS011;22232;50.914;13.858;2022-11-11T09:49:27;2.15;;;0.75;;
36189;SDS011;22232;50.914;13.858;2022-11-11T09:55:44;1.95;;;0.70;;
36189;SDS011;22232;50.914;13.858;2022-11-11T09:58:47;2.72;;;0.50;;
36189;SDS011;22232;50.914;13.858;2022-11-11T10:01:42;1.73;;;0.70;;
36189;SDS011;22232;50.914;13.858;2022-11-11T10:04:47;3.70;;;1.30;;
36189;SDS011;22232;50.914;13.858;2022-11-11T10:07:45;3.30;;;1.42;;
36189;SDS011;22232;50.914;13.858;2022-11-11T10:10:43;8.00;;;1.52;;
36189;SDS011;22232;50.914;13.858;2022-11-11T10:13:35;11.63;;;2.63;;
36189;SDS011;22232;50.914;13.858;2022-11-11T10:19:35;5.72;;;1.40;;
36189;SDS011;22232;50.914;13.858;2022-11-11T10:25:26;4.63;;;0.85;;
36189;SDS011;22232;50.914;13.858;2022-11-11T10:28:14;3.55;;;0.60;;
36189;SDS011;22232;50.914;13.858;2022-11-11T10:31:05;1.98;;;0.70;;
36189;SDS011;22232;50.914;13.858;2022-11-11T10:34:10;3.75;;;1.20;;
36189;SDS011;22232;50.914;13.858;2022-11-11T10:36:57;2.00;;;0.90;;
36189;SDS011;22232;50.914;13.858;2022-11-11T10:43:01;4.88;;;0.80;;
36189;SDS011;22232;50.914;13.858;2022-11-11T10:51:58;1.58;;;0.75;;
36189;SDS011;22232;50.914;13.858;2022-11-11T10:55:06;1.27;;;0.80;;
36189;SDS011;22232;50.914;13.858;2022-11-11T10:58:20;1.42;;;0.60;;
36189;SDS011;22232;50.914;13.858;2022-11-11T11:01:13;2.35;;;0.73;;
36189;SDS011;22232;50.914;13.858;2022-11-11T11:04:03;1.10;;;0.70;;
36189;SDS011;22232;50.914;13.858;2022-11-11T11:06:54;3.95;;;0.90;;
36189;SDS011;22232;50.914;13.858;2022-11-11T11:09:49;1.00;;;0.70;;
36189;SDS011;22232;50.914;13.858;2022-11-11T11:12:48;1.77;;;0.93;;
36189;SDS011;22232;50.914;13.858;2022-11-11T11:15:43;2.05;;;0.80;;
36189;SDS011;22232;50.914;13.858;2022-11-11T11:18:34;4.68;;;1.45;;
36189;SDS011;22232;50.914;13.858;2022-11-11T11:21:28;0.95;;;0.85;;
36189;SDS011;22232;50.914;13.858;2022-11-11T11:24:54;4.75;;;1.15;;
36189;SDS011;22232;50.914;13.858;2022-11-11T11:28:05;4.45;;;1.00;;
36189;SDS011;22232;50.914;13.858;2022-11-11T11:30:57;1.58;;;0.90;;
36189;SDS011;22232;50.914;13.858;2022-11-11T11:33:49;1.80;;;0.70;;
36189;SDS011;22232;50.914;13.858;2022-11-11T11:36:35;3.63;;;0.90;;
36189;SDS011;22232;50.914;13.858;2022-11-11T11:39:31;1.85;;;0.82;;
36189;SDS011;22232;50.914;13.858;2022-11-11T11:42:53;1.45;;;0.82;;
36189;SDS011;22232;50.914;13.858;2022-11-11T11:45:32;1.55;;;0.80;;
36189;SDS011;22232;50.914;13.858;2022-11-11T11:54:13;5.32;;;2.50;;
36189;SDS011;22232;50.914;13.858;2022-11-11T12:00:37;7.70;;;3.85;;
36189;SDS011;22232;50.914;13.858;2022-11-11T12:10:57;7.55;;;4.18;;
36189;SDS011;22232;50.914;13.858;2022-11-11T12:17:01;7.45;;;3.97;;
36189;SDS011;22232;50.914;13.858;2022-11-11T12:19:59;9.30;;;3.83;;
36189;SDS011;22232;50.914;13.858;2022-11-11T12:26:24;7.25;;;3.08;;
36189;SDS011;22232;50.914;13.858;2022-11-11T12:38:56;9.88;;;3.28;;
36189;SDS011;22232;50.914;13.858;2022-11-11T12:45:38;10.38;;;3.08;;
36189;SDS011;22232;50.914;13.858;2022-11-11T12:51:29;6.10;;;3.40;;
36189;SDS011;22232;50.914;13.858;2022-11-11T12:54:47;16.48;;;3.95;;
36189;SDS011;22232;50.914;13.858;2022-11-11T13:01:09;17.92;;;5.57;;
36189;SDS011;22232;50.914;13.858;2022-11-11T13:07:29;11.02;;;3.95;;
36189;SDS011;22232;50.914;13.858;2022-11-11T13:16:12;12.95;;;5.50;;
36189;SDS011;22232;50.914;13.858;2022-11-11T13:19:02;12.55;;;5.28;;
36189;SDS011;22232;50.914;13.858;2022-11-11T13:22:00;10.13;;;5.22;;
36189;SDS011;22232;50.914;13.858;2022-11-11T13:24:53;9.73;;;5.20;;
36189;SDS011;22232;50.914;13.858;2022-11-11T13:30:55;12.73;;;5.82;;
36189;SDS011;22232;50.914;13.858;2022-11-11T13:33:47;10.52;;;5.80;;
36189;SDS011;22232;50.914;13.858;2022-11-11T13:36:43;11.50;;;5.55;;
36189;SDS011;22232;50.914;13.858;2022-11-11T13:39:39;10.15;;;4.88;;
36189;SDS011;22232;50.914;13.858;2022-11-11T13:42:34;8.57;;;3.58;;
36189;SDS011;22232;50.914;13.858;2022-11-11T13:45:29;14.52;;;5.53;;
36189;SDS011;22232;50.914;13.858;2022-11-11T13:54:32;11.45;;;5.30;;
36189;SDS011;22232;50.914;13.858;2022-11-11T13:57:21;10.82;;;5.63;;
36189;SDS011;22232;50.914;13.858;2022-11-11T14:00:33;8.05;;;5.28;;
36189;SDS011;22232;50.914;13.858;2022-11-11T14:09:00;11.18;;;6.93;;
36189;SDS011;22232;50.914;13.858;2022-11-11T14:11:46;11.40;;;6.63;;
36189;SDS011;22232;50.914;13.858;2022-11-11T14:17:18;9.63;;;5.78;;
36189;SDS011;22232;50.914;13.858;2022-11-11T14:26:24;9.73;;;6.68;;
36189;SDS011;22232;50.914;13.858;2022-11-11T14:29:18;9.98;;;5.88;;
36189;SDS011;22232;50.914;13.858;2022-11-11T14:35:36;9.10;;;5.40;;
36189;SDS011;22232;50.914;13.858;2022-11-11T14:38:28;10.07;;;5.40;;
36189;SDS011;22232;50.914;13.858;2022-11-11T14:53:19;14.93;;;5.55;;
36189;SDS011;22232;50.914;13.858;2022-11-11T14:56:15;6.18;;;3.83;;
36189;SDS011;22232;50.914;13.858;2022-11-11T14:59:06;14.18;;;5.47;;
36189;SDS011;22232;50.914;13.858;2022-11-11T15:01:56;13.75;;;7.50;;
36189;SDS011;22232;50.914;13.858;2022-11-11T15:04:43;12.48;;;6.80;;
36189;SDS011;22232;50.914;13.858;2022-11-11T15:07:35;11.90;;;7.43;;
36189;SDS011;22232;50.914;13.858;2022-11-11T15:10:36;15.30;;;7.82;;
36189;SDS011;22232;50.914;13.858;2022-11-11T15:16:57;14.73;;;6.85;;
36189;SDS011;22232;50.914;13.858;2022-11-11T15:22:56;10.68;;;6.22;;
36189;SDS011;22232;50.914;13.858;2022-11-11T15:32:21;14.98;;;6.55;;
36189;SDS011;22232;50.914;13.858;2022-11-11T15:35:27;14.75;;;7.68;;
36189;SDS011;22232;50.914;13.858;2022-11-11T15:38:16;10.98;;;6.90;;
36189;SDS011;22232;50.914;13.858;2022-11-11T15:41:04;31.02;;;16.23;;
36189;SDS011;22232;50.914;13.858;2022-11-11T15:43:50;26.40;;;10.85;;
36189;SDS011;22232;50.914;13.858;2022-11-11T15:46:39;15.98;;;8.68;;
36189;SDS011;22232;50.914;13.858;2022-11-11T15:55:22;15.25;;;8.00;;
36189;SDS011;22232;50.914;13.858;2022-11-11T16:01:13;19.02;;;7.88;;
36189;SDS011;22232;50.914;13.858;2022-11-11T16:04:00;13.60;;;7.05;;
36189;SDS011;22232;50.914;13.858;2022-11-11T16:06:46;13.43;;;7.20;;
36189;SDS011;22232;50.914;13.858;2022-11-11T16:09:33;16.20;;;8.05;;
36189;SDS011;22232;50.914;13.858;2022-11-11T16:12:23;17.35;;;7.82;;
36189;SDS011;22232;50.914;13.858;2022-11-11T16:15:22;19.98;;;8.70;;
36189;SDS011;22232;50.914;13.858;2022-11-11T16:18:29;19.13;;;8.45;;
36189;SDS011;22232;50.914;13.858;2022-11-11T16:24:30;13.25;;;7.95;;
36189;SDS011;22232;50.914;13.858;2022-11-11T16:27:19;16.45;;;7.32;;
36189;SDS011;22232;50.914;13.858;2022-11-11T16:30:44;15.82;;;7.72;;
36189;SDS011;22232;50.914;13.858;2022-11-11T16:36:12;16.52;;;6.80;;
36189;SDS011;22232;50.914;13.858;2022-11-11T16:39:12;6.85;;;3.85;;
36189;SDS011;22232;50.914;13.858;2022-11-11T16:41:59;10.00;;;5.15;;
36189;SDS011;22232;50.914;13.858;2022-11-11T16:47:40;3.92;;;1.95;;
36189;SDS011;22232;50.914;13.858;2022-11-11T16:50:28;2.13;;;1.48;;
36189;SDS011;22232;50.914;13.858;2022-11-11T16:53:25;4.40;;;1.55;;
36189;SDS011;22232;50.914;13.858;2022-11-11T16:56:27;4.32;;;1.85;;
36189;SDS011;22232;50.914;13.858;2022-11-11T16:59:24;2.22;;;1.20;;
36189;SDS011;22232;50.914;13.858;2022-11-11T17:02:21;2.40;;;1.30;;
36189;SDS011;22232;50.914;13.858;2022-11-11T17:05:09;2.75;;;1.25;;
36189;SDS011;22232;50.914;13.858;2022-11-11T17:07:56;2.58;;;1.38;;
36189;SDS011;22232;50.914;13.858;2022-11-11T17:10:42;3.17;;;1.60;;
36189;SDS011;22232;50.914;13.858;2022-11-11T17:13:28;2.33;;;1.20;;
36189;SDS011;22232;50.914;13.858;2022-11-11T17:16:14;18.58;;;9.73;;
36189;SDS011;22232;50.914;13.858;2022-11-11T17:19:01;11.25;;;5.90;;
36189;SDS011;22232;50.914;13.858;2022-11-11T17:21:48;1.30;;;1.20;;
36189;SDS011;22232;50.914;13.858;2022-11-11T17:24:34;2.45;;;1.20;;
36189;SDS011;22232;50.914;13.858;2022-11-11T17:27:21;1.90;;;0.95;;
36189;SDS011;22232;50.914;13.858;2022-11-11T17:30:07;1.58;;;1.05;;
36189;SDS011;22232;50.914;13.858;2022-11-11T17:32:54;7.85;;;3.47;;
36189;SDS011;22232;50.914;13.858;2022-11-11T17:35:50;5.25;;;2.70;;
36189;SDS011;22232;50.914;13.858;2022-11-11T17:38:37;4.50;;;2.08;;
36189;SDS011;22232;50.914;13.858;2022-11-11T17:41:23;3.28;;;1.50;;
36189;SDS011;22232;50.914;13.858;2022-11-11T17:44:09;13.80;;;7.80;;
36189;SDS011;22232;50.914;13.858;2022-11-11T17:46:55;11.90;;;5.60;;
36189;SDS011;22232;50.914;13.858;2022-11-11T17:49:41;9.90;;;5.82;;
36189;SDS011;22232;50.914;13.858;2022-11-11T17:52:41;9.13;;;5.57;;
36189;SDS011;22232;50.914;13.858;2022-11-11T17:55:27;9.75;;;6.55;;
36189;SDS011;22232;50.914;13.858;2022-11-11T17:58:13;10.45;;;5.95;;
36189;SDS011;22232;50.914;13.858;2022-11-11T18:01:04;7.80;;;5.10;;
36189;SDS011;22232;50.914;13.858;2022-11-11T18:03:54;7.53;;;4.68;;
36189;SDS011;22232;50.914;13.858;2022-11-11T18:06:41;3.70;;;1.92;;
36189;SDS011;22232;50.914;13.858;2022-11-11T18:09:28;5.20;;;3.17;;
36189;SDS011;22232;50.914;13.858;2022-11-11T18:12:14;14.70;;;9.90;;
36189;SDS011;22232;50.914;13.858;2022-11-11T18:15:00;5.68;;;3.63;;
36189;SDS011;22232;50.914;13.858;2022-11-11T18:17:46;5.30;;;2.15;;
36189;SDS011;22232;50.914;13.858;2022-11-11T18:20:32;18.95;;;9.77;;
36189;SDS011;22232;50.914;13.858;2022-11-11T18:23:18;11.68;;;6.50;;
36189;SDS011;22232;50.914;13.858;2022-11-11T18:26:05;2.70;;;1.63;;
36189;SDS011;22232;50.914;13.858;2022-11-11T18:28:52;2.25;;;1.80;;
36189;SDS011;22232;50.914;13.858;2022-11-11T18:31:38;2.92;;;1.55;;
36189;SDS011;22232;50.914;13.858;2022-11-11T18:34:24;2.53;;;1.98;;
36189;SDS011;22232;50.914;13.858;2022-11-11T18:37:11;2.83;;;1.35;;
36189;SDS011;22232;50.914;13.858;2022-11-11T18:39:57;2.20;;;1.80;;
36189;SDS011;22232;50.914;13.858;2022-11-11T18:42:43;2.35;;;1.70;;
36189;SDS011;22232;50.914;13.858;2022-11-11T18:45:29;3.00;;;2.67;;
36189;SDS011;22232;50.914;13.858;2022-11-11T18:48:15;2.40;;;1.38;;
36189;SDS011;22232;50.914;13.858;2022-11-11T18:51:01;4.50;;;1.70;;
36189;SDS011;22232;50.914;13.858;2022-11-11T18:53:48;2.25;;;1.50;;
36189;SDS011;22232;50.914;13.858;2022-11-11T18:56:35;3.80;;;1.70;;
36189;SDS011;22232;50.914;13.858;2022-11-11T18:59:22;5.15;;;1.42;;
36189;SDS011;22232;50.914;13.858;2022-11-11T19:02:08;2.65;;;1.40;;
36189;SDS011;22232;50.914;13.858;2022-11-11T19:04:54;1.38;;;1.10;;
36189;SDS011;22232;50.914;13.858;2022-11-11T19:07:40;2.00;;;1.15;;
36189;SDS011;22232;50.914;13.858;2022-11-11T19:10:26;1.83;;;1.08;;
36189;SDS011;22232;50.914;13.858;2022-11-11T19:13:13;2.30;;;1.40;;
36189;SDS011;22232;50.914;13.858;2022-11-11T19:16:03;1.63;;;1.17;;
36189;SDS011;22232;50.914;13.858;2022-11-11T19:18:54;2.33;;;1.13;;
36189;SDS011;22232;50.914;13.858;2022-11-11T19:21:40;2.15;;;1.08;;
36189;SDS011;22232;50.914;13.858;2022-11-11T19:24:26;2.08;;;1.23;;
36189;SDS011;22232;50.914;13.858;2022-11-11T19:27:18;1.27;;;1.00;;
36189;SDS011;22232;50.914;13.858;2022-11-11T19:30:04;1.92;;;0.95;;
36189;SDS011;22232;50.914;13.858;2022-11-11T19:32:50;4.30;;;1.30;;
36189;SDS011;22232;50.914;13.858;2022-11-11T19:35:36;2.05;;;1.08;;